Thomas, West Virginia
Current Conditions -  °F | °C
As of 4:20 PM on Monday 22 Dec 2014 (Local Time) from KW99 Reporting Station
Unknown Precip Unknown Precip  
Wind Chill: 32°   Ceiling: 500
Heat Index: 32°   Visibility: 1mi
Dew Point: 32°   Wind: 0mph
Humidity: 99%   Direction: NA
Pressure: 30.15"   Gusts: NA
Location:  39.15°N, 79.5°W
Report Text: KW99 222120Z AUTO 00000KT 1SM UP OVC005 00/00 A3015 RMK AO2 T00010000
Loading
Personal Weather Stations






























Interactive Weather Map New forecast layout! Learn more

10-Day Weather Forecast

Advertisements
Track Severe Weather on mobile